METAR Data

Data at: 1115 UTC 24 May 2022

METAR for:KSFM (Sanford Rgnl, ME, US)
Text:KSFM 241056Z AUTO 02007KT 10SM CLR 10/03 A3037 RMK AO2 SLP286 T01000033
Temperature: 10.0°C ( 50°F)
Dewpoint: 3.3°C ( 38°F) [RH = 63%]
Pressure (altimeter):30.37 inches Hg (1028.5 mb) [Sea level pressure: 1028.6 mb]
Winds:from the NNE (20 degrees) at 8 MPH (7 knots; 3.6 m/s)
Visibility:10 or more sm (16+ km)
Ceiling:at least 12,000 feet AGL
Clouds:sky clear below 12,000 feet AGL
QC Flag:automated observation with no human augmentation